sensor_id;sensor_type;location;lat;lon;timestamp;P1;durP1;ratioP1;P2;durP2;ratioP2
12719;SDS011;6424;48.520;11.228;2022-11-15T00:00:08;13.57;;;9.60;;
12719;SDS011;6424;48.520;11.228;2022-11-15T00:02:51;12.67;;;9.80;;
12719;SDS011;6424;48.520;11.228;2022-11-15T00:05:34;11.87;;;9.10;;
12719;SDS011;6424;48.520;11.228;2022-11-15T00:08:16;12.30;;;8.53;;
12719;SDS011;6424;48.520;11.228;2022-11-15T00:10:57;10.43;;;8.10;;
12719;SDS011;6424;48.520;11.228;2022-11-15T00:13:39;10.00;;;8.67;;
12719;SDS011;6424;48.520;11.228;2022-11-15T00:16:20;11.40;;;9.50;;
12719;SDS011;6424;48.520;11.228;2022-11-15T00:19:01;10.07;;;8.30;;
12719;SDS011;6424;48.520;11.228;2022-11-15T00:21:42;8.50;;;7.60;;
12719;SDS011;6424;48.520;11.228;2022-11-15T00:24:23;8.37;;;7.47;;
12719;SDS011;6424;48.520;11.228;2022-11-15T00:27:04;8.70;;;7.80;;
12719;SDS011;6424;48.520;11.228;2022-11-15T00:29:45;9.10;;;8.17;;
12719;SDS011;6424;48.520;11.228;2022-11-15T00:32:26;10.03;;;7.87;;
12719;SDS011;6424;48.520;11.228;2022-11-15T00:35:10;12.00;;;9.20;;
12719;SDS011;6424;48.520;11.228;2022-11-15T00:37:51;9.67;;;8.33;;
12719;SDS011;6424;48.520;11.228;2022-11-15T00:40:33;8.40;;;7.37;;
12719;SDS011;6424;48.520;11.228;2022-11-15T00:43:14;10.70;;;8.50;;
12719;SDS011;6424;48.520;11.228;2022-11-15T00:45:54;8.63;;;7.73;;
12719;SDS011;6424;48.520;11.228;2022-11-15T00:48:35;8.43;;;7.20;;
12719;SDS011;6424;48.520;11.228;2022-11-15T00:51:16;9.50;;;7.43;;
12719;SDS011;6424;48.520;11.228;2022-11-15T00:53:57;9.37;;;7.80;;
12719;SDS011;6424;48.520;11.228;2022-11-15T00:56:38;9.13;;;7.20;;
12719;SDS011;6424;48.520;11.228;2022-11-15T00:59:19;10.03;;;7.43;;
12719;SDS011;6424;48.520;11.228;2022-11-15T01:02:00;7.37;;;6.43;;
12719;SDS011;6424;48.520;11.228;2022-11-15T01:04:41;7.03;;;6.33;;
12719;SDS011;6424;48.520;11.228;2022-11-15T01:07:22;7.60;;;6.17;;
12719;SDS011;6424;48.520;11.228;2022-11-15T01:09:48;7.40;;;6.60;;
12719;SDS011;6424;48.520;11.228;2022-11-15T01:12:28;8.50;;;6.80;;
12719;SDS011;6424;48.520;11.228;2022-11-15T01:14:54;7.07;;;6.37;;
12719;SDS011;6424;48.520;11.228;2022-11-15T01:17:20;8.10;;;7.30;;
12719;SDS011;6424;48.520;11.228;2022-11-15T01:20:01;8.87;;;7.37;;
12719;SDS011;6424;48.520;11.228;2022-11-15T01:22:42;9.17;;;6.77;;
12719;SDS011;6424;48.520;11.228;2022-11-15T01:25:22;10.87;;;7.40;;
12719;SDS011;6424;48.520;11.228;2022-11-15T01:28:03;8.13;;;7.07;;
12719;SDS011;6424;48.520;11.228;2022-11-15T01:30:44;7.87;;;6.63;;
12719;SDS011;6424;48.520;11.228;2022-11-15T01:33:25;10.83;;;6.93;;
12719;SDS011;6424;48.520;11.228;2022-11-15T01:36:07;8.07;;;6.80;;
12719;SDS011;6424;48.520;11.228;2022-11-15T01:38:54;9.07;;;8.03;;
12719;SDS011;6424;48.520;11.228;2022-11-15T01:41:39;8.50;;;6.77;;
12719;SDS011;6424;48.520;11.228;2022-11-15T01:47:27;9.20;;;7.40;;
12719;SDS011;6424;48.520;11.228;2022-11-15T01:50:16;7.63;;;6.83;;
12719;SDS011;6424;48.520;11.228;2022-11-15T01:53:01;8.67;;;7.37;;
12719;SDS011;6424;48.520;11.228;2022-11-15T01:55:42;8.90;;;7.50;;
12719;SDS011;6424;48.520;11.228;2022-11-15T01:58:23;7.80;;;7.00;;
12719;SDS011;6424;48.520;11.228;2022-11-15T02:01:04;8.83;;;7.40;;
12719;SDS011;6424;48.520;11.228;2022-11-15T02:03:55;8.83;;;6.77;;
12719;SDS011;6424;48.520;11.228;2022-11-15T02:06:44;7.40;;;6.67;;
12719;SDS011;6424;48.520;11.228;2022-11-15T02:09:26;6.83;;;6.17;;
12719;SDS011;6424;48.520;11.228;2022-11-15T02:12:07;7.13;;;6.40;;
12719;SDS011;6424;48.520;11.228;2022-11-15T02:14:51;7.00;;;6.00;;
12719;SDS011;6424;48.520;11.228;2022-11-15T02:20:35;8.03;;;6.13;;
12719;SDS011;6424;48.520;11.228;2022-11-15T02:29:08;8.10;;;6.93;;
12719;SDS011;6424;48.520;11.228;2022-11-15T02:32:00;8.77;;;6.33;;
12719;SDS011;6424;48.520;11.228;2022-11-15T02:38:22;7.73;;;6.10;;
12719;SDS011;6424;48.520;11.228;2022-11-15T02:41:01;6.20;;;5.53;;
12719;SDS011;6424;48.520;11.228;2022-11-15T02:46:48;6.60;;;6.00;;
12719;SDS011;6424;48.520;11.228;2022-11-15T02:49:37;7.77;;;6.27;;
12719;SDS011;6424;48.520;11.228;2022-11-15T02:52:23;5.67;;;5.00;;
12719;SDS011;6424;48.520;11.228;2022-11-15T02:55:29;6.40;;;5.70;;
12719;SDS011;6424;48.520;11.228;2022-11-15T03:09:52;5.50;;;5.00;;
12719;SDS011;6424;48.520;11.228;2022-11-15T03:12:41;5.90;;;5.30;;
12719;SDS011;6424;48.520;11.228;2022-11-15T03:15:47;5.17;;;4.67;;
12719;SDS011;6424;48.520;11.228;2022-11-15T03:18:41;5.57;;;5.03;;
12719;SDS011;6424;48.520;11.228;2022-11-15T03:21:25;6.17;;;5.57;;
12719;SDS011;6424;48.520;11.228;2022-11-15T03:24:09;8.07;;;6.20;;
12719;SDS011;6424;48.520;11.228;2022-11-15T03:26:53;8.20;;;6.23;;
12719;SDS011;6424;48.520;11.228;2022-11-15T03:29:37;6.47;;;5.70;;
12719;SDS011;6424;48.520;11.228;2022-11-15T03:32:23;6.80;;;5.33;;
12719;SDS011;6424;48.520;11.228;2022-11-15T03:35:08;7.40;;;6.07;;
12719;SDS011;6424;48.520;11.228;2022-11-15T03:40:58;12.70;;;7.43;;
12719;SDS011;6424;48.520;11.228;2022-11-15T03:43:36;9.37;;;6.80;;
12719;SDS011;6424;48.520;11.228;2022-11-15T03:49:22;9.73;;;7.80;;
12719;SDS011;6424;48.520;11.228;2022-11-15T03:52:07;10.13;;;6.97;;
12719;SDS011;6424;48.520;11.228;2022-11-15T03:54:52;7.07;;;6.37;;
12719;SDS011;6424;48.520;11.228;2022-11-15T03:57:34;8.40;;;6.53;;
12719;SDS011;6424;48.520;11.228;2022-11-15T04:00:15;9.00;;;6.40;;
12719;SDS011;6424;48.520;11.228;2022-11-15T04:02:56;6.37;;;5.77;;
12719;SDS011;6424;48.520;11.228;2022-11-15T04:05:37;9.87;;;7.13;;
12719;SDS011;6424;48.520;11.228;2022-11-15T04:08:18;7.87;;;7.07;;
12719;SDS011;6424;48.520;11.228;2022-11-15T04:10:44;7.47;;;5.93;;
12719;SDS011;6424;48.520;11.228;2022-11-15T04:13:25;9.87;;;6.93;;
12719;SDS011;6424;48.520;11.228;2022-11-15T04:16:05;7.50;;;6.77;;
12719;SDS011;6424;48.520;11.228;2022-11-15T04:18:46;7.73;;;6.93;;
12719;SDS011;6424;48.520;11.228;2022-11-15T04:21:47;7.17;;;6.43;;
12719;SDS011;6424;48.520;11.228;2022-11-15T04:24:46;9.77;;;8.20;;
12719;SDS011;6424;48.520;11.228;2022-11-15T04:27:27;9.27;;;7.53;;
12719;SDS011;6424;48.520;11.228;2022-11-15T04:30:08;10.17;;;7.20;;
12719;SDS011;6424;48.520;11.228;2022-11-15T04:32:49;7.60;;;6.73;;
12719;SDS011;6424;48.520;11.228;2022-11-15T04:35:29;7.83;;;6.90;;
12719;SDS011;6424;48.520;11.228;2022-11-15T04:38:10;6.60;;;5.90;;
12719;SDS011;6424;48.520;11.228;2022-11-15T04:40:52;8.20;;;6.33;;
12719;SDS011;6424;48.520;11.228;2022-11-15T04:43:33;7.20;;;6.13;;
12719;SDS011;6424;48.520;11.228;2022-11-15T04:46:13;7.80;;;6.47;;
12719;SDS011;6424;48.520;11.228;2022-11-15T04:48:39;9.20;;;6.47;;
12719;SDS011;6424;48.520;11.228;2022-11-15T04:51:20;7.30;;;6.60;;
12719;SDS011;6424;48.520;11.228;2022-11-15T04:54:01;6.87;;;6.17;;
12719;SDS011;6424;48.520;11.228;2022-11-15T04:56:41;7.00;;;6.30;;
12719;SDS011;6424;48.520;11.228;2022-11-15T04:59:22;6.80;;;6.13;;
12719;SDS011;6424;48.520;11.228;2022-11-15T05:02:03;8.73;;;7.00;;
12719;SDS011;6424;48.520;11.228;2022-11-15T05:04:44;8.10;;;6.30;;
12719;SDS011;6424;48.520;11.228;2022-11-15T05:07:24;7.60;;;6.80;;
12719;SDS011;6424;48.520;11.228;2022-11-15T05:10:05;6.83;;;6.10;;
12719;SDS011;6424;48.520;11.228;2022-11-15T05:12:46;7.00;;;6.30;;
12719;SDS011;6424;48.520;11.228;2022-11-15T05:15:27;6.60;;;5.97;;
12719;SDS011;6424;48.520;11.228;2022-11-15T05:18:08;7.67;;;6.87;;
12719;SDS011;6424;48.520;11.228;2022-11-15T05:20:49;7.73;;;6.93;;
12719;SDS011;6424;48.520;11.228;2022-11-15T05:23:30;10.00;;;7.67;;
12719;SDS011;6424;48.520;11.228;2022-11-15T05:26:11;8.83;;;7.80;;
12719;SDS011;6424;48.520;11.228;2022-11-15T05:28:56;8.60;;;6.87;;
12719;SDS011;6424;48.520;11.228;2022-11-15T05:31:39;8.53;;;7.40;;
12719;SDS011;6424;48.520;11.228;2022-11-15T05:34:22;6.93;;;6.23;;
12719;SDS011;6424;48.520;11.228;2022-11-15T05:37:04;15.37;;;7.90;;
12719;SDS011;6424;48.520;11.228;2022-11-15T05:39:45;9.73;;;8.30;;
12719;SDS011;6424;48.520;11.228;2022-11-15T05:42:26;14.67;;;8.20;;
12719;SDS011;6424;48.520;11.228;2022-11-15T05:45:08;13.80;;;8.67;;
12719;SDS011;6424;48.520;11.228;2022-11-15T05:47:49;12.93;;;9.13;;
12719;SDS011;6424;48.520;11.228;2022-11-15T05:50:31;13.33;;;8.77;;
12719;SDS011;6424;48.520;11.228;2022-11-15T05:52:58;11.07;;;8.50;;
12719;SDS011;6424;48.520;11.228;2022-11-15T05:55:39;12.97;;;8.17;;
12719;SDS011;6424;48.520;11.228;2022-11-15T05:58:21;8.03;;;6.97;;
12719;SDS011;6424;48.520;11.228;2022-11-15T06:01:02;16.87;;;9.53;;
12719;SDS011;6424;48.520;11.228;2022-11-15T06:03:43;10.97;;;8.07;;
12719;SDS011;6424;48.520;11.228;2022-11-15T06:06:23;11.97;;;8.97;;
12719;SDS011;6424;48.520;11.228;2022-11-15T06:09:04;12.63;;;8.53;;
12719;SDS011;6424;48.520;11.228;2022-11-15T06:11:45;11.93;;;8.03;;
12719;SDS011;6424;48.520;11.228;2022-11-15T06:14:11;15.23;;;8.80;;
12719;SDS011;6424;48.520;11.228;2022-11-15T06:16:36;13.63;;;8.07;;
12719;SDS011;6424;48.520;11.228;2022-11-15T06:19:17;10.37;;;7.47;;
12719;SDS011;6424;48.520;11.228;2022-11-15T06:21:43;12.50;;;8.40;;
12719;SDS011;6424;48.520;11.228;2022-11-15T06:24:24;15.10;;;8.83;;
12719;SDS011;6424;48.520;11.228;2022-11-15T06:27:04;14.87;;;9.23;;
12719;SDS011;6424;48.520;11.228;2022-11-15T06:29:45;11.63;;;8.77;;
12719;SDS011;6424;48.520;11.228;2022-11-15T06:32:26;13.17;;;9.33;;
12719;SDS011;6424;48.520;11.228;2022-11-15T06:35:07;11.63;;;7.73;;
12719;SDS011;6424;48.520;11.228;2022-11-15T06:37:47;13.20;;;9.90;;
12719;SDS011;6424;48.520;11.228;2022-11-15T06:40:29;12.40;;;8.60;;
12719;SDS011;6424;48.520;11.228;2022-11-15T06:43:09;13.60;;;9.53;;
12719;SDS011;6424;48.520;11.228;2022-11-15T06:45:50;13.73;;;9.23;;
12719;SDS011;6424;48.520;11.228;2022-11-15T06:48:32;27.47;;;18.60;;
12719;SDS011;6424;48.520;11.228;2022-11-15T06:51:13;25.23;;;17.20;;
12719;SDS011;6424;48.520;11.228;2022-11-15T06:53:39;28.13;;;15.90;;
12719;SDS011;6424;48.520;11.228;2022-11-15T06:56:20;15.37;;;9.60;;
12719;SDS011;6424;48.520;11.228;2022-11-15T06:59:00;11.87;;;8.63;;
12719;SDS011;6424;48.520;11.228;2022-11-15T07:01:41;12.70;;;8.27;;
12719;SDS011;6424;48.520;11.228;2022-11-15T07:04:07;11.60;;;8.73;;
12719;SDS011;6424;48.520;11.228;2022-11-15T07:06:48;8.97;;;7.63;;
12719;SDS011;6424;48.520;11.228;2022-11-15T07:09:29;9.43;;;8.00;;
12719;SDS011;6424;48.520;11.228;2022-11-15T07:11:54;12.90;;;8.07;;
12719;SDS011;6424;48.520;11.228;2022-11-15T07:14:35;10.30;;;7.20;;
12719;SDS011;6424;48.520;11.228;2022-11-15T07:17:16;7.47;;;6.73;;
12719;SDS011;6424;48.520;11.228;2022-11-15T07:19:57;9.07;;;8.17;;
12719;SDS011;6424;48.520;11.228;2022-11-15T07:22:37;8.87;;;8.00;;
12719;SDS011;6424;48.520;11.228;2022-11-15T07:25:18;7.97;;;7.27;;
12719;SDS011;6424;48.520;11.228;2022-11-15T07:27:59;7.80;;;7.03;;
12719;SDS011;6424;48.520;11.228;2022-11-15T07:30:26;6.10;;;5.60;;
12719;SDS011;6424;48.520;11.228;2022-11-15T07:32:53;5.83;;;5.23;;
12719;SDS011;6424;48.520;11.228;2022-11-15T07:35:38;6.50;;;5.77;;
12719;SDS011;6424;48.520;11.228;2022-11-15T07:38:18;24.83;;;22.33;;
12719;SDS011;6424;48.520;11.228;2022-11-15T07:41:00;19.67;;;17.77;;
12719;SDS011;6424;48.520;11.228;2022-11-15T07:43:28;16.30;;;14.60;;
12719;SDS011;6424;48.520;11.228;2022-11-15T07:46:09;25.73;;;20.90;;
12719;SDS011;6424;48.520;11.228;2022-11-15T07:48:50;17.23;;;13.67;;
12719;SDS011;6424;48.520;11.228;2022-11-15T07:51:16;12.90;;;11.37;;
12719;SDS011;6424;48.520;11.228;2022-11-15T07:53:57;14.43;;;11.87;;
12719;SDS011;6424;48.520;11.228;2022-11-15T07:56:38;16.10;;;12.23;;
12719;SDS011;6424;48.520;11.228;2022-11-15T07:59:19;11.60;;;8.63;;
12719;SDS011;6424;48.520;11.228;2022-11-15T08:02:00;10.33;;;8.47;;
12719;SDS011;6424;48.520;11.228;2022-11-15T08:04:41;10.40;;;9.10;;
12719;SDS011;6424;48.520;11.228;2022-11-15T08:07:21;11.77;;;9.93;;
12719;SDS011;6424;48.520;11.228;2022-11-15T08:10:02;12.93;;;10.13;;
12719;SDS011;6424;48.520;11.228;2022-11-15T08:12:44;9.73;;;8.73;;
12719;SDS011;6424;48.520;11.228;2022-11-15T08:15:24;9.07;;;8.13;;
12719;SDS011;6424;48.520;11.228;2022-11-15T08:17:57;9.63;;;8.67;;
12719;SDS011;6424;48.520;11.228;2022-11-15T08:20:40;9.17;;;8.27;;
12719;SDS011;6424;48.520;11.228;2022-11-15T08:23:22;9.33;;;8.23;;
12719;SDS011;6424;48.520;11.228;2022-11-15T08:26:02;10.10;;;9.00;;
12719;SDS011;6424;48.520;11.228;2022-11-15T08:28:44;14.67;;;11.83;;
12719;SDS011;6424;48.520;11.228;2022-11-15T08:31:25;17.13;;;11.83;;
12719;SDS011;6424;48.520;11.228;2022-11-15T08:34:06;15.77;;;13.10;;
12719;SDS011;6424;48.520;11.228;2022-11-15T08:36:47;16.53;;;13.27;;
12719;SDS011;6424;48.520;11.228;2022-11-15T08:39:27;17.63;;;14.63;;
12719;SDS011;6424;48.520;11.228;2022-11-15T08:41:53;17.97;;;14.20;;
12719;SDS011;6424;48.520;11.228;2022-11-15T08:44:34;19.80;;;15.33;;
12719;SDS011;6424;48.520;11.228;2022-11-15T08:47:15;16.30;;;12.87;;
12719;SDS011;6424;48.520;11.228;2022-11-15T08:49:56;14.77;;;12.23;;
12719;SDS011;6424;48.520;11.228;2022-11-15T08:52:36;13.27;;;10.87;;
12719;SDS011;6424;48.520;11.228;2022-11-15T08:55:17;6.23;;;5.63;;
12719;SDS011;6424;48.520;11.228;2022-11-15T08:57:58;6.17;;;5.33;;
12719;SDS011;6424;48.520;11.228;2022-11-15T09:00:39;6.80;;;4.73;;
12719;SDS011;6424;48.520;11.228;2022-11-15T09:03:20;5.20;;;4.70;;
12719;SDS011;6424;48.520;11.228;2022-11-15T09:06:01;7.83;;;6.20;;
12719;SDS011;6424;48.520;11.228;2022-11-15T09:08:29;9.07;;;6.47;;
12719;SDS011;6424;48.520;11.228;2022-11-15T09:11:11;8.30;;;6.13;;
12719;SDS011;6424;48.520;11.228;2022-11-15T09:13:52;7.77;;;5.90;;
12719;SDS011;6424;48.520;11.228;2022-11-15T09:16:33;5.70;;;5.00;;
12719;SDS011;6424;48.520;11.228;2022-11-15T09:19:14;5.90;;;5.10;;
12719;SDS011;6424;48.520;11.228;2022-11-15T09:21:55;5.17;;;4.17;;
12719;SDS011;6424;48.520;11.228;2022-11-15T09:24:36;5.97;;;5.37;;
12719;SDS011;6424;48.520;11.228;2022-11-15T09:27:17;6.03;;;5.07;;
12719;SDS011;6424;48.520;11.228;2022-11-15T09:29:57;5.97;;;5.00;;
12719;SDS011;6424;48.520;11.228;2022-11-15T09:32:38;5.67;;;4.97;;
12719;SDS011;6424;48.520;11.228;2022-11-15T09:35:19;5.77;;;4.60;;
12719;SDS011;6424;48.520;11.228;2022-11-15T09:38:00;8.83;;;6.17;;
12719;SDS011;6424;48.520;11.228;2022-11-15T09:40:41;7.63;;;6.80;;
12719;SDS011;6424;48.520;11.228;2022-11-15T09:49:11;9.23;;;7.33;;
12719;SDS011;6424;48.520;11.228;2022-11-15T09:51:55;7.07;;;6.37;;
12719;SDS011;6424;48.520;11.228;2022-11-15T09:54:37;7.90;;;7.17;;
12719;SDS011;6424;48.520;11.228;2022-11-15T09:59:56;8.00;;;6.73;;
12719;SDS011;6424;48.520;11.228;2022-11-15T10:05:37;7.20;;;6.40;;
12719;SDS011;6424;48.520;11.228;2022-11-15T10:11:15;5.67;;;5.17;;
12719;SDS011;6424;48.520;11.228;2022-11-15T10:14:01;6.57;;;5.97;;
12719;SDS011;6424;48.520;11.228;2022-11-15T10:20:21;7.10;;;5.90;;
12719;SDS011;6424;48.520;11.228;2022-11-15T10:23:06;12.17;;;6.13;;
12719;SDS011;6424;48.520;11.228;2022-11-15T10:25:54;10.40;;;6.27;;
12719;SDS011;6424;48.520;11.228;2022-11-15T10:28:37;9.27;;;7.17;;
12719;SDS011;6424;48.520;11.228;2022-11-15T10:31:22;7.30;;;6.07;;
12719;SDS011;6424;48.520;11.228;2022-11-15T10:36:59;9.20;;;6.00;;
12719;SDS011;6424;48.520;11.228;2022-11-15T10:39:42;6.90;;;6.20;;
12719;SDS011;6424;48.520;11.228;2022-11-15T10:42:28;7.77;;;5.60;;
12719;SDS011;6424;48.520;11.228;2022-11-15T10:45:31;5.70;;;5.20;;
12719;SDS011;6424;48.520;11.228;2022-11-15T10:48:19;5.97;;;5.27;;
12719;SDS011;6424;48.520;11.228;2022-11-15T10:51:02;8.47;;;6.10;;
12719;SDS011;6424;48.520;11.228;2022-11-15T10:54:06;7.67;;;6.17;;
12719;SDS011;6424;48.520;11.228;2022-11-15T10:56:54;5.37;;;4.73;;
12719;SDS011;6424;48.520;11.228;2022-11-15T10:59:38;8.13;;;5.07;;
12719;SDS011;6424;48.520;11.228;2022-11-15T11:10:55;4.97;;;4.50;;
12719;SDS011;6424;48.520;11.228;2022-11-15T11:13:38;5.37;;;4.47;;
12719;SDS011;6424;48.520;11.228;2022-11-15T11:16:23;5.17;;;4.67;;
12719;SDS011;6424;48.520;11.228;2022-11-15T11:22:17;6.50;;;5.07;;
12719;SDS011;6424;48.520;11.228;2022-11-15T11:33:58;5.17;;;4.67;;
12719;SDS011;6424;48.520;11.228;2022-11-15T11:37:02;6.53;;;5.30;;
12719;SDS011;6424;48.520;11.228;2022-11-15T11:45:23;5.87;;;5.27;;
12719;SDS011;6424;48.520;11.228;2022-11-15T11:48:12;5.77;;;4.87;;
12719;SDS011;6424;48.520;11.228;2022-11-15T11:51:05;11.13;;;6.03;;
12719;SDS011;6424;48.520;11.228;2022-11-15T11:54:12;6.00;;;5.40;;
12719;SDS011;6424;48.520;11.228;2022-11-15T11:57:00;5.00;;;4.60;;
12719;SDS011;6424;48.520;11.228;2022-11-15T11:59:49;5.67;;;4.63;;
12719;SDS011;6424;48.520;11.228;2022-11-15T12:02:39;4.90;;;4.40;;
12719;SDS011;6424;48.520;11.228;2022-11-15T12:05:26;5.37;;;4.53;;
12719;SDS011;6424;48.520;11.228;2022-11-15T12:08:35;6.30;;;5.27;;
12719;SDS011;6424;48.520;11.228;2022-11-15T12:11:30;5.20;;;4.67;;
12719;SDS011;6424;48.520;11.228;2022-11-15T12:14:48;5.10;;;4.60;;
12719;SDS011;6424;48.520;11.228;2022-11-15T12:17:36;5.80;;;5.20;;
12719;SDS011;6424;48.520;11.228;2022-11-15T12:20:21;6.10;;;4.53;;
12719;SDS011;6424;48.520;11.228;2022-11-15T12:23:15;5.40;;;4.90;;
12719;SDS011;6424;48.520;11.228;2022-11-15T12:26:05;6.33;;;4.90;;
12719;SDS011;6424;48.520;11.228;2022-11-15T12:28:49;5.80;;;5.20;;
12719;SDS011;6424;48.520;11.228;2022-11-15T12:31:27;5.43;;;4.90;;
12719;SDS011;6424;48.520;11.228;2022-11-15T12:37:00;5.80;;;5.10;;
12719;SDS011;6424;48.520;11.228;2022-11-15T12:43:01;6.83;;;6.00;;
12719;SDS011;6424;48.520;11.228;2022-11-15T12:46:05;6.57;;;4.60;;
12719;SDS011;6424;48.520;11.228;2022-11-15T12:48:52;5.80;;;5.20;;
12719;SDS011;6424;48.520;11.228;2022-11-15T13:02:29;6.50;;;5.90;;
12719;SDS011;6424;48.520;11.228;2022-11-15T13:15:38;8.63;;;7.83;;
12719;SDS011;6424;48.520;11.228;2022-11-15T13:18:38;7.33;;;6.63;;
12719;SDS011;6424;48.520;11.228;2022-11-15T13:21:21;7.43;;;6.73;;
12719;SDS011;6424;48.520;11.228;2022-11-15T13:24:22;8.73;;;6.23;;
12719;SDS011;6424;48.520;11.228;2022-11-15T13:26:48;7.47;;;6.77;;
12719;SDS011;6424;48.520;11.228;2022-11-15T13:29:29;8.43;;;7.50;;
12719;SDS011;6424;48.520;11.228;2022-11-15T13:32:13;7.30;;;6.50;;
12719;SDS011;6424;48.520;11.228;2022-11-15T13:34:56;8.77;;;7.93;;
12719;SDS011;6424;48.520;11.228;2022-11-15T13:37:37;8.30;;;7.47;;
12719;SDS011;6424;48.520;11.228;2022-11-15T13:40:27;8.37;;;7.57;;
12719;SDS011;6424;48.520;11.228;2022-11-15T13:46:05;8.43;;;7.60;;
12719;SDS011;6424;48.520;11.228;2022-11-15T13:48:55;8.80;;;7.90;;
12719;SDS011;6424;48.520;11.228;2022-11-15T13:54:29;8.20;;;7.40;;
12719;SDS011;6424;48.520;11.228;2022-11-15T13:57:08;8.80;;;6.97;;
12719;SDS011;6424;48.520;11.228;2022-11-15T14:00:05;8.60;;;7.70;;
12719;SDS011;6424;48.520;11.228;2022-11-15T14:06:08;8.63;;;7.03;;
12719;SDS011;6424;48.520;11.228;2022-11-15T14:11:52;8.53;;;7.40;;
12719;SDS011;6424;48.520;11.228;2022-11-15T14:14:34;8.70;;;7.80;;
12719;SDS011;6424;48.520;11.228;2022-11-15T14:20:20;8.80;;;6.83;;
12719;SDS011;6424;48.520;11.228;2022-11-15T14:23:25;7.63;;;6.90;;
12719;SDS011;6424;48.520;11.228;2022-11-15T14:26:11;8.97;;;8.17;;
12719;SDS011;6424;48.520;11.228;2022-11-15T14:28:55;8.93;;;7.60;;
12719;SDS011;6424;48.520;11.228;2022-11-15T14:31:36;8.20;;;7.30;;
12719;SDS011;6424;48.520;11.228;2022-11-15T14:34:17;8.40;;;7.43;;
12719;SDS011;6424;48.520;11.228;2022-11-15T14:36:57;10.53;;;8.70;;
12719;SDS011;6424;48.520;11.228;2022-11-15T14:39:38;11.30;;;9.23;;
12719;SDS011;6424;48.520;11.228;2022-11-15T14:42:20;10.37;;;9.27;;
12719;SDS011;6424;48.520;11.228;2022-11-15T14:45:02;12.33;;;10.17;;
12719;SDS011;6424;48.520;11.228;2022-11-15T14:47:43;12.10;;;9.37;;
12719;SDS011;6424;48.520;11.228;2022-11-15T14:50:24;9.70;;;8.70;;
12719;SDS011;6424;48.520;11.228;2022-11-15T14:52:49;10.20;;;9.10;;
12719;SDS011;6424;48.520;11.228;2022-11-15T14:55:31;8.77;;;7.97;;
12719;SDS011;6424;48.520;11.228;2022-11-15T14:58:16;12.27;;;9.23;;
12719;SDS011;6424;48.520;11.228;2022-11-15T15:00:56;9.30;;;8.40;;
12719;SDS011;6424;48.520;11.228;2022-11-15T15:03:37;10.03;;;9.03;;
12719;SDS011;6424;48.520;11.228;2022-11-15T15:06:18;10.63;;;8.67;;
12719;SDS011;6424;48.520;11.228;2022-11-15T15:08:59;9.07;;;8.17;;
12719;SDS011;6424;48.520;11.228;2022-11-15T15:11:40;8.77;;;7.87;;
12719;SDS011;6424;48.520;11.228;2022-11-15T15:14:21;9.63;;;8.00;;
12719;SDS011;6424;48.520;11.228;2022-11-15T15:17:02;8.17;;;7.40;;
12719;SDS011;6424;48.520;11.228;2022-11-15T15:19:43;12.27;;;9.17;;
12719;SDS011;6424;48.520;11.228;2022-11-15T15:22:25;13.80;;;9.53;;
12719;SDS011;6424;48.520;11.228;2022-11-15T15:25:30;12.87;;;9.43;;
12719;SDS011;6424;48.520;11.228;2022-11-15T15:28:14;11.77;;;8.10;;
12719;SDS011;6424;48.520;11.228;2022-11-15T15:30:55;11.87;;;9.07;;
12719;SDS011;6424;48.520;11.228;2022-11-15T15:33:36;12.00;;;8.37;;
12719;SDS011;6424;48.520;11.228;2022-11-15T15:36:18;8.63;;;7.80;;
12719;SDS011;6424;48.520;11.228;2022-11-15T15:38:59;11.30;;;8.73;;
12719;SDS011;6424;48.520;11.228;2022-11-15T15:41:40;11.83;;;8.60;;
12719;SDS011;6424;48.520;11.228;2022-11-15T15:44:05;10.50;;;8.53;;
12719;SDS011;6424;48.520;11.228;2022-11-15T15:46:46;10.27;;;8.97;;
12719;SDS011;6424;48.520;11.228;2022-11-15T15:49:27;9.00;;;8.03;;
12719;SDS011;6424;48.520;11.228;2022-11-15T15:52:08;8.53;;;7.73;;
12719;SDS011;6424;48.520;11.228;2022-11-15T15:54:33;10.40;;;9.40;;
12719;SDS011;6424;48.520;11.228;2022-11-15T15:57:14;18.27;;;15.57;;
12719;SDS011;6424;48.520;11.228;2022-11-15T15:59:55;64.50;;;47.80;;
12719;SDS011;6424;48.520;11.228;2022-11-15T16:02:21;52.20;;;43.07;;
12719;SDS011;6424;48.520;11.228;2022-11-15T16:05:02;16.60;;;15.00;;
12719;SDS011;6424;48.520;11.228;2022-11-15T16:07:43;15.83;;;13.30;;
12719;SDS011;6424;48.520;11.228;2022-11-15T16:10:26;14.70;;;13.37;;
12719;SDS011;6424;48.520;11.228;2022-11-15T16:13:14;15.13;;;12.53;;
12719;SDS011;6424;48.520;11.228;2022-11-15T16:15:40;15.53;;;11.67;;
12719;SDS011;6424;48.520;11.228;2022-11-15T16:18:22;11.23;;;9.97;;
12719;SDS011;6424;48.520;11.228;2022-11-15T16:21:03;9.47;;;8.53;;
12719;SDS011;6424;48.520;11.228;2022-11-15T16:23:44;10.00;;;8.97;;
12719;SDS011;6424;48.520;11.228;2022-11-15T16:26:26;9.63;;;8.63;;
12719;SDS011;6424;48.520;11.228;2022-11-15T16:29:08;10.63;;;9.40;;
12719;SDS011;6424;48.520;11.228;2022-11-15T16:31:50;10.97;;;8.80;;
12719;SDS011;6424;48.520;11.228;2022-11-15T16:34:31;17.53;;;11.43;;
12719;SDS011;6424;48.520;11.228;2022-11-15T16:37:20;13.40;;;10.70;;
12719;SDS011;6424;48.520;11.228;2022-11-15T16:39:47;10.73;;;9.67;;
12719;SDS011;6424;48.520;11.228;2022-11-15T16:42:28;10.53;;;9.53;;
12719;SDS011;6424;48.520;11.228;2022-11-15T16:45:10;10.53;;;8.97;;
12719;SDS011;6424;48.520;11.228;2022-11-15T16:47:55;9.60;;;8.70;;
12719;SDS011;6424;48.520;11.228;2022-11-15T16:50:36;11.63;;;9.83;;
12719;SDS011;6424;48.520;11.228;2022-11-15T16:53:19;16.93;;;12.73;;
12719;SDS011;6424;48.520;11.228;2022-11-15T16:56:00;13.73;;;9.97;;
12719;SDS011;6424;48.520;11.228;2022-11-15T16:58:41;10.57;;;9.07;;
12719;SDS011;6424;48.520;11.228;2022-11-15T17:01:23;12.67;;;10.53;;
12719;SDS011;6424;48.520;11.228;2022-11-15T17:04:05;10.80;;;9.70;;
12719;SDS011;6424;48.520;11.228;2022-11-15T17:06:51;12.37;;;10.40;;
12719;SDS011;6424;48.520;11.228;2022-11-15T17:09:32;12.67;;;11.13;;
12719;SDS011;6424;48.520;11.228;2022-11-15T17:12:13;17.63;;;14.20;;
12719;SDS011;6424;48.520;11.228;2022-11-15T17:14:54;130.27;;;67.30;;
12719;SDS011;6424;48.520;11.228;2022-11-15T17:17:34;106.20;;;56.03;;
12719;SDS011;6424;48.520;11.228;2022-11-15T17:20:16;69.93;;;39.17;;
12719;SDS011;6424;48.520;11.228;2022-11-15T17:22:57;52.00;;;33.57;;
12719;SDS011;6424;48.520;11.228;2022-11-15T17:25:38;47.20;;;29.10;;
12719;SDS011;6424;48.520;11.228;2022-11-15T17:28:19;33.50;;;22.97;;
12719;SDS011;6424;48.520;11.228;2022-11-15T17:31:00;27.57;;;19.07;;
12719;SDS011;6424;48.520;11.228;2022-11-15T17:33:41;20.87;;;15.70;;
12719;SDS011;6424;48.520;11.228;2022-11-15T17:36:21;16.87;;;13.70;;
12719;SDS011;6424;48.520;11.228;2022-11-15T17:39:03;42.60;;;26.77;;
12719;SDS011;6424;48.520;11.228;2022-11-15T17:41:44;16.43;;;14.13;;
12719;SDS011;6424;48.520;11.228;2022-11-15T17:44:25;21.50;;;19.20;;
12719;SDS011;6424;48.520;11.228;2022-11-15T17:47:06;15.37;;;13.73;;
12719;SDS011;6424;48.520;11.228;2022-11-15T17:49:47;24.83;;;17.80;;
12719;SDS011;6424;48.520;11.228;2022-11-15T17:52:28;25.13;;;22.63;;
12719;SDS011;6424;48.520;11.228;2022-11-15T17:55:09;23.13;;;19.83;;
12719;SDS011;6424;48.520;11.228;2022-11-15T17:57:49;19.93;;;17.87;;
12719;SDS011;6424;48.520;11.228;2022-11-15T18:00:30;19.03;;;16.43;;
12719;SDS011;6424;48.520;11.228;2022-11-15T18:03:11;16.73;;;14.30;;
12719;SDS011;6424;48.520;11.228;2022-11-15T18:05:38;18.73;;;12.63;;
12719;SDS011;6424;48.520;11.228;2022-11-15T18:08:22;15.53;;;12.30;;
12719;SDS011;6424;48.520;11.228;2022-11-15T18:11:04;12.07;;;10.77;;
12719;SDS011;6424;48.520;11.228;2022-11-15T18:13:47;12.30;;;11.00;;